Time;durP1;ratioP1;P1;durP2;ratioP2;P2;SDS_P1;SDS_P2;PMS_P1;PMS_P2;Temp;Humidity;BMP_temperature;BMP_pressure;BME280_temperature;BME280_humidity;BME280_pressure;Samples;Min_cycle;Max_cycle;Signal;HPM_P1;HPM_P2
2023/06/18 00:04:58;;;;;;;11.40;10.20;;;;;;;13.31;77.60;98562.60;226104;1278;22573;-70
2023/06/18 00:10:03;;;;;;;11.30;10.20;;;;;;;13.26;77.77;98557.35;226039;1277;24787;-69
2023/06/18 00:15:06;;;;;;;11.80;10.60;;;;;;;13.20;77.85;98557.70;226051;1261;22537;-68
2023/06/18 00:20:09;;;;;;;14.00;12.10;;;;;;;13.12;78.20;98554.52;226077;1270;22560;-69
2023/06/18 00:25:11;;;;;;;12.20;11.10;;;;;;;13.04;78.32;98552.46;226109;1278;22727;-70
2023/06/18 00:30:14;;;;;;;13.60;12.30;;;;;;;12.97;78.48;98555.91;225788;1278;22556;-69
2023/06/18 00:35:18;;;;;;;14.30;12.90;;;;;;;12.91;78.64;98553.80;226009;1278;22536;-69
2023/06/18 00:40:20;;;;;;;15.20;13.60;;;;;;;12.86;78.82;98551.66;226039;1274;24296;-69
2023/06/18 00:45:23;;;;;;;16.10;14.20;;;;;;;12.83;79.30;98549.95;226065;1278;22536;-69
2023/06/18 00:50:26;;;;;;;16.20;14.50;;;;;;;12.81;79.34;98547.10;226110;1278;22548;-70
2023/06/18 00:55:30;;;;;;;15.40;13.80;;;;;;;12.77;79.31;98548.17;226004;1278;22603;-69
2023/06/18 01:00:34;;;;;;;16.30;14.60;;;;;;;12.73;79.50;98546.36;226041;1277;22544;-68
2023/06/18 01:05:36;;;;;;;16.20;14.50;;;;;;;12.70;79.50;98541.66;226039;1267;22544;-71
2023/06/18 01:10:40;;;;;;;14.50;12.80;;;;;;;12.67;79.75;98545.09;226180;1276;22559;-70
2023/06/18 01:15:43;;;;;;;13.60;12.20;;;;;;;12.63;79.98;98552.44;226018;1278;22551;-69
2023/06/18 01:20:49;;;;;;;14.80;13.20;;;;;;;12.60;80.31;98555.48;226004;1278;22527;-68
2023/06/18 01:25:57;;;;;;;14.60;13.10;;;;;;;12.58;80.20;98556.58;225948;1278;22543;-69
2023/06/18 01:31:01;;;;;;;16.30;14.70;;;;;;;12.55;80.39;98558.24;226107;1275;24220;-68
2023/06/18 01:36:07;;;;;;;15.50;14.00;;;;;;;12.50;80.49;98561.13;226043;1272;22533;-68
2023/06/18 01:41:22;;;;;;;15.10;13.60;;;;;;;12.46;80.59;98567.30;226073;1278;22537;-69
2023/06/18 01:46:28;;;;;;;15.90;13.70;;;;;;;12.39;80.62;98562.63;225918;1278;22533;-69
2023/06/18 01:51:32;;;;;;;14.80;13.30;;;;;;;12.31;80.78;98567.19;226069;1278;22580;-69
2023/06/18 01:56:37;;;;;;;14.60;13.30;;;;;;;12.26;81.02;98567.23;226034;1276;22527;-67
2023/06/18 02:01:40;;;;;;;14.10;12.60;;;;;;;12.24;81.40;98571.70;226031;1275;22533;-68
2023/06/18 02:06:42;;;;;;;14.30;12.70;;;;;;;12.24;81.49;98573.83;226127;1276;22586;-68
2023/06/18 02:11:44;;;;;;;13.00;11.70;;;;;;;12.28;81.62;98573.89;226114;1275;22555;-68
2023/06/18 02:16:48;;;;;;;14.00;12.60;;;;;;;12.36;81.71;98574.73;226017;1278;25248;-70
2023/06/18 02:21:52;;;;;;;15.10;12.20;;;;;;;12.43;81.72;98576.45;226123;1278;22553;-68
2023/06/18 02:26:56;;;;;;;14.40;13.10;;;;;;;12.46;81.70;98582.77;226069;1276;22555;-69
2023/06/18 02:31:58;;;;;;;12.50;11.20;;;;;;;12.48;81.67;98590.61;226107;1278;22549;-68
2023/06/18 02:37:00;;;;;;;13.30;12.00;;;;;;;12.52;81.95;98591.27;226072;1276;24293;-69
2023/06/18 02:42:02;;;;;;;13.10;11.90;;;;;;;12.57;82.06;98593.64;226099;1278;25321;-68
2023/06/18 02:47:13;;;;;;;12.50;11.20;;;;;;;12.60;82.21;98598.28;226141;1274;22557;-68
2023/06/18 02:52:15;;;;;;;12.70;11.50;;;;;;;12.64;82.07;98600.23;225799;1278;22534;-68
2023/06/18 02:57:17;;;;;;;14.30;12.70;;;;;;;12.63;82.15;98603.16;226000;1273;22531;-70
2023/06/18 03:02:19;;;;;;;13.30;11.90;;;;;;;12.60;82.14;98606.93;226071;1257;22560;-69
2023/06/18 03:07:21;;;;;;;13.40;12.10;;;;;;;12.59;82.10;98615.29;225880;1278;22787;-69
2023/06/18 03:12:24;;;;;;;14.80;13.20;;;;;;;12.56;81.97;98611.09;226219;1277;22540;-69
2023/06/18 03:17:27;;;;;;;14.20;12.70;;;;;;;12.53;81.92;98609.37;226107;1278;24220;-69
2023/06/18 03:22:29;;;;;;;14.30;12.70;;;;;;;12.70;82.04;98604.54;226078;1277;22536;-69
2023/06/18 03:27:31;;;;;;;13.90;12.60;;;;;;;13.03;81.68;98604.17;226136;1276;22724;-69
2023/06/18 03:32:33;;;;;;;13.90;11.80;;;;;;;13.44;81.40;98607.33;226160;1276;22529;-69
2023/06/18 03:37:36;;;;;;;12.00;10.70;;;;;;;13.92;80.95;98605.02;226143;1276;22568;-70
2023/06/18 03:42:38;;;;;;;11.80;10.70;;;;;;;14.41;80.59;98608.73;226075;1274;22548;-70
2023/06/18 03:47:41;;;;;;;12.40;10.70;;;;;;;14.97;80.12;98612.70;225863;1278;22571;-69
2023/06/18 03:52:43;;;;;;;11.50;10.40;;;;;;;15.60;79.18;98613.19;226061;1276;25312;-70
2023/06/18 03:57:46;;;;;;;11.40;10.30;;;;;;;16.08;78.20;98617.27;226054;1264;22547;-70
2023/06/18 04:02:48;;;;;;;12.20;11.00;;;;;;;16.24;76.95;98619.77;226137;1276;22567;-70
2023/06/18 04:07:53;;;;;;;12.10;10.30;;;;;;;16.21;77.07;98619.53;225941;1278;22544;-68
2023/06/18 04:12:55;;;;;;;12.00;10.30;;;;;;;16.09;76.94;98622.73;226108;1277;22535;-68
2023/06/18 04:17:58;;;;;;;12.20;11.00;;;;;;;15.99;77.03;98630.96;226084;1276;25284;-69
2023/06/18 04:23:03;;;;;;;10.80;9.70;;;;;;;15.86;76.91;98634.70;226148;1263;22902;-68
2023/06/18 04:28:08;;;;;;;11.60;10.40;;;;;;;15.75;77.26;98634.30;226101;1273;22551;-68
2023/06/18 04:33:10;;;;;;;11.70;10.60;;;;;;;15.68;77.17;98631.50;226128;1276;22589;-68
2023/06/18 04:38:13;;;;;;;12.10;10.80;;;;;;;15.55;77.23;98634.88;226146;1278;22554;-69
2023/06/18 04:43:20;;;;;;;13.20;11.20;;;;;;;15.48;77.63;98642.36;226214;1276;22548;-70
2023/06/18 04:48:22;;;;;;;11.90;10.70;;;;;;;15.46;77.68;98643.88;226201;1276;22652;-69
2023/06/18 04:53:24;;;;;;;12.30;11.10;;;;;;;15.49;77.95;98646.69;226185;1275;22547;-69
2023/06/18 04:58:27;;;;;;;12.50;11.20;;;;;;;15.59;78.00;98646.52;226184;1257;22563;-68
2023/06/18 05:03:33;;;;;;;11.00;10.00;;;;;;;15.73;77.79;98648.36;226062;1264;22537;-70
2023/06/18 05:08:36;;;;;;;11.60;10.50;;;;;;;15.87;77.34;98647.32;225946;1277;25358;-70
2023/06/18 05:13:43;;;;;;;11.50;10.40;;;;;;;16.00;77.16;98650.34;226117;1278;22592;-68
2023/06/18 05:18:47;;;;;;;11.40;10.30;;;;;;;16.22;77.27;98657.63;226098;1276;22531;-68
2023/06/18 05:23:49;;;;;;;11.30;10.20;;;;;;;16.39;76.85;98650.80;226090;1270;22567;-68
2023/06/18 05:28:52;;;;;;;11.30;10.20;;;;;;;16.54;76.89;98655.52;225947;1274;22548;-68
2023/06/18 05:33:57;;;;;;;11.30;10.30;;;;;;;16.61;76.49;98660.15;226099;1273;23364;-68
2023/06/18 05:39:00;;;;;;;11.20;10.10;;;;;;;16.63;76.00;98669.48;226087;1276;22537;-69
2023/06/18 05:44:03;;;;;;;11.80;10.60;;;;;;;16.64;75.96;98673.04;226184;1276;22556;-70
2023/06/18 05:49:07;;;;;;;12.50;11.40;;;;;;;16.70;75.83;98680.05;226019;1276;22484;-69
2023/06/18 05:54:10;;;;;;;12.60;11.40;;;;;;;16.80;75.87;98682.00;226172;1267;22542;-70
2023/06/18 05:59:12;;;;;;;12.20;10.50;;;;;;;16.92;76.09;98676.40;225878;1278;22553;-69
2023/06/18 06:04:20;;;;;;;14.30;11.50;;;;;;;16.96;75.67;98672.55;226106;1255;22547;-70
2023/06/18 06:09:23;;;;;;;13.00;11.70;;;;;;;17.06;75.97;98674.60;226182;1270;22535;-69
2023/06/18 06:14:25;;;;;;;12.40;10.80;;;;;;;17.24;76.04;98682.71;226110;1275;154221;-69
2023/06/18 06:19:28;;;;;;;12.90;9.90;;;;;;;17.40;75.82;98686.11;226187;1276;22581;-70
2023/06/18 06:24:31;;;;;;;11.90;10.60;;;;;;;17.56;75.50;98687.98;226122;1272;24861;-69
2023/06/18 06:29:33;;;;;;;10.30;9.30;;;;;;;17.74;75.34;98691.77;226084;1277;22540;-70
2023/06/18 06:34:35;;;;;;;11.40;10.20;;;;;;;17.90;74.90;98690.06;226029;1275;22562;-68
2023/06/18 06:39:37;;;;;;;11.20;10.10;;;;;;;18.03;74.40;98690.30;225859;1276;22545;-69
2023/06/18 06:44:39;;;;;;;13.10;10.90;;;;;;;18.16;74.51;98684.83;226213;1277;24272;-69
2023/06/18 06:50:00;;;;;;;12.20;10.10;;;;;;;18.34;73.97;98688.70;225946;1277;22536;-70
2023/06/18 06:55:28;;;;;;;9.00;8.10;;;;;;;18.49;73.62;98685.37;225982;1278;22536;-69
2023/06/18 07:00:30;;;;;;;10.30;9.00;;;;;;;18.68;73.18;98687.48;226068;1275;22545;-69
2023/06/18 07:05:32;;;;;;;10.60;9.50;;;;;;;18.79;72.40;98686.55;225798;1279;22630;-69
2023/06/18 07:10:37;;;;;;;10.50;9.40;;;;;;;18.91;72.43;98689.38;225755;1273;22591;-70
2023/06/18 07:15:39;;;;;;;9.80;8.90;;;;;;;19.06;72.33;98697.67;225956;1273;22560;-69
2023/06/18 07:20:43;;;;;;;9.80;8.10;;;;;;;19.30;71.91;98698.95;226204;1271;22563;-69
2023/06/18 07:25:45;;;;;;;9.10;8.30;;;;;;;19.49;71.23;98695.64;226193;1276;22523;-70
2023/06/18 07:30:47;;;;;;;9.30;8.50;;;;;;;19.73;71.04;98690.17;226301;1274;22540;-69
2023/06/18 07:35:49;;;;;;;9.30;8.50;;;;;;;20.02;70.98;98694.54;226132;1278;22558;-69
2023/06/18 07:40:52;;;;;;;8.40;7.70;;;;;;;20.33;70.18;98700.73;226268;1271;22563;-70
2023/06/18 07:45:54;;;;;;;10.30;8.90;;;;;;;20.67;69.21;98693.52;226219;1277;24272;-69
2023/06/18 07:50:56;;;;;;;10.00;9.10;;;;;;;21.10;68.60;98699.18;226024;1273;22557;-71
2023/06/18 07:55:59;;;;;;;9.30;8.40;;;;;;;21.24;67.22;98702.68;226244;1276;22547;-70
2023/06/18 08:01:01;;;;;;;10.20;9.30;;;;;;;21.47;67.27;98702.45;226284;1275;22540;-70
2023/06/18 08:06:03;;;;;;;10.10;9.30;;;;;;;21.84;66.52;98706.51;226161;1275;22645;-69
2023/06/18 08:11:05;;;;;;;10.30;9.30;;;;;;;21.85;65.13;98707.63;226136;1275;24215;-69
2023/06/18 08:16:07;;;;;;;10.70;9.70;;;;;;;21.83;64.87;98706.29;226070;1273;22467;-70
2023/06/18 08:21:09;;;;;;;10.90;10.00;;;;;;;22.04;64.97;98700.79;226180;1260;22618;-69
2023/06/18 08:26:11;;;;;;;10.80;9.90;;;;;;;22.24;64.41;98700.86;226258;1276;22554;-70
2023/06/18 08:31:12;;;;;;;9.40;8.60;;;;;;;22.54;63.77;98696.02;226222;1275;22608;-71
2023/06/18 08:36:15;;;;;;;11.50;10.60;;;;;;;22.87;62.76;98696.17;226210;1276;22548;-70
2023/06/18 08:41:17;;;;;;;12.40;11.30;;;;;;;22.90;61.77;98696.06;226158;1274;25790;-69
2023/06/18 08:46:20;;;;;;;13.30;12.20;;;;;;;22.52;61.69;98696.98;226073;1277;22556;-71
2023/06/18 08:51:23;;;;;;;12.70;11.50;;;;;;;22.30;62.37;98701.84;226197;1277;23130;-69
2023/06/18 08:56:28;;;;;;;10.60;9.70;;;;;;;22.09;62.21;98702.91;226174;1278;22560;-69
2023/06/18 09:01:30;;;;;;;11.30;10.40;;;;;;;21.91;62.58;98699.17;226121;1271;25476;-70
2023/06/18 09:06:35;;;;;;;14.00;12.80;;;;;;;21.98;63.04;98698.88;226031;1276;22532;-70
2023/06/18 09:11:41;;;;;;;13.10;12.00;;;;;;;22.35;63.09;98693.66;226231;1267;22544;-69
2023/06/18 09:16:43;;;;;;;11.30;10.30;;;;;;;22.79;62.19;98686.89;226056;1278;22535;-69
2023/06/18 09:21:46;;;;;;;9.90;9.10;;;;;;;23.24;61.02;98684.65;226146;1274;22600;-71
2023/06/18 09:27:00;;;;;;;10.70;9.90;;;;;;;23.49;59.72;98682.73;225997;1274;23102;-69
2023/06/18 09:32:11;;;;;;;9.80;9.00;;;;;;;23.30;59.64;98685.34;225919;1265;22552;-69
2023/06/18 09:37:14;;;;;;;10.80;9.90;;;;;;;23.01;59.83;98689.16;226192;1274;22543;-69
2023/06/18 09:42:28;;;;;;;10.80;9.90;;;;;;;22.69;60.62;98689.73;226212;1278;22577;-69
2023/06/18 09:47:33;;;;;;;11.80;10.70;;;;;;;22.59;60.79;98677.48;226168;1278;22604;-69
2023/06/18 09:52:46;;;;;;;10.80;9.90;;;;;;;22.61;60.91;98672.31;226168;1274;22567;-69
2023/06/18 09:57:49;;;;;;;10.50;9.50;;;;;;;22.72;60.27;98666.02;226183;1274;22573;-69
2023/06/18 10:02:52;;;;;;;9.20;8.40;;;;;;;22.67;59.90;98667.86;226137;1277;24285;-69
2023/06/18 10:07:55;;;;;;;8.10;7.50;;;;;;;23.04;60.07;98661.77;226033;1276;25130;-69
2023/06/18 10:13:03;;;;;;;7.70;7.10;;;;;;;23.56;59.04;98662.95;226153;1274;26180;-70
2023/06/18 10:18:08;;;;;;;8.70;8.00;;;;;;;23.72;57.65;98666.39;226146;1271;22535;-70
2023/06/18 10:23:10;;;;;;;8.60;7.90;;;;;;;23.80;58.00;98662.94;226071;1276;22651;-70
2023/06/18 10:28:12;;;;;;;7.70;7.10;;;;;;;24.01;57.11;98661.11;226169;1275;22550;-70
2023/06/18 10:33:14;;;;;;;7.40;6.90;;;;;;;24.14;56.80;98661.52;226145;1271;22657;-70
2023/06/18 10:38:16;;;;;;;8.90;8.20;;;;;;;24.32;56.69;98655.88;226183;1274;23707;-73
2023/06/18 10:43:24;;;;;;;8.70;7.90;;;;;;;24.62;56.59;98648.30;226186;1271;22547;-68
2023/06/18 10:48:34;;;;;;;8.90;8.10;;;;;;;24.92;56.04;98652.17;226220;1278;22556;-69
2023/06/18 10:53:36;;;;;;;8.90;8.10;;;;;;;25.08;55.58;98655.92;226142;1278;22559;-71
2023/06/18 10:58:40;;;;;;;9.00;8.30;;;;;;;24.86;55.26;98656.80;226039;1278;22525;-69
2023/06/18 11:03:42;;;;;;;7.80;7.20;;;;;;;24.80;55.51;98653.77;226243;1274;22546;-68
2023/06/18 11:08:45;;;;;;;7.80;7.20;;;;;;;25.10;55.08;98651.30;226174;1274;22551;-70
2023/06/18 11:13:53;;;;;;;8.20;7.50;;;;;;;25.14;54.61;98649.05;226167;1260;22562;-70
2023/06/18 11:19:02;;;;;;;8.60;7.90;;;;;;;25.07;54.46;98645.60;226175;1274;22550;-69
2023/06/18 11:24:10;;;;;;;9.90;9.00;;;;;;;25.02;54.12;98639.92;226100;1274;21797;-70
2023/06/18 11:29:13;;;;;;;9.90;9.10;;;;;;;25.07;53.99;98633.45;226189;1276;22644;-70
2023/06/18 11:34:15;;;;;;;11.10;10.10;;;;;;;25.00;53.73;98630.47;226207;1275;22539;-69
2023/06/18 11:39:17;;;;;;;9.50;8.80;;;;;;;25.08;53.94;98629.69;226156;1270;22554;-72
2023/06/18 11:44:25;;;;;;;9.40;8.70;;;;;;;25.24;53.50;98630.02;226138;1264;22566;-69
2023/06/18 11:49:27;;;;;;;11.30;10.40;;;;;;;25.30;53.17;98636.54;225974;1265;22549;-70
2023/06/18 11:54:29;;;;;;;10.50;9.70;;;;;;;25.37;52.93;98625.55;226069;1267;25262;-71
2023/06/18 11:59:31;;;;;;;10.00;9.20;;;;;;;25.50;52.47;98626.64;226094;1270;23091;-69
2023/06/18 12:04:34;;;;;;;9.90;9.20;;;;;;;25.49;52.05;98632.77;226092;1272;23277;-70
2023/06/18 12:09:37;;;;;;;8.30;7.70;;;;;;;25.60;52.43;98631.67;226156;1275;22558;-69
2023/06/18 12:15:02;;;;;;;8.30;7.70;;;;;;;25.75;52.18;98642.92;226107;1274;22541;-69
2023/06/18 12:20:12;;;;;;;8.90;8.20;;;;;;;25.67;51.71;98639.86;226050;1278;22563;-69
2023/06/18 12:25:15;;;;;;;9.60;8.90;;;;;;;25.36;52.09;98632.75;226113;1274;22539;-69
2023/06/18 12:30:17;;;;;;;9.30;8.60;;;;;;;25.10;53.95;98629.19;226021;1277;22526;-68
2023/06/18 12:35:21;;;;;;;10.00;9.20;;;;;;;25.05;54.56;98621.94;226126;1271;22545;-69
2023/06/18 12:40:25;;;;;;;9.10;8.30;;;;;;;24.96;54.65;98618.07;226141;1278;23004;-69
2023/06/18 12:45:31;;;;;;;9.10;8.40;;;;;;;25.14;54.93;98621.31;226064;1265;22575;-70
2023/06/18 12:50:34;;;;;;;8.40;7.70;;;;;;;25.15;54.63;98629.46;226088;1276;22552;-69
2023/06/18 12:55:36;;;;;;;8.20;7.60;;;;;;;24.92;53.83;98635.84;226087;1266;22536;-69
2023/06/18 13:00:37;;;;;;;7.70;7.00;;;;;;;24.55;54.06;98634.84;226072;1274;22591;-70
2023/06/18 13:05:42;;;;;;;7.80;7.30;;;;;;;24.17;54.61;98642.13;226162;1275;23616;-69
2023/06/18 13:10:45;;;;;;;9.30;8.40;;;;;;;23.80;55.18;98645.29;226127;1277;22552;-70
2023/06/18 13:15:48;;;;;;;8.40;7.60;;;;;;;23.42;55.47;98646.98;226150;1274;22545;-70
2023/06/18 13:20:51;;;;;;;8.10;7.50;;;;;;;23.13;55.99;98643.05;226123;1274;26896;-71
2023/06/18 13:25:57;;;;;;;8.30;7.60;;;;;;;22.89;56.92;98638.14;226058;1272;22527;-69
2023/06/18 13:30:59;;;;;;;8.30;7.60;;;;;;;22.74;58.61;98632.79;226033;1274;22576;-68
2023/06/18 13:36:04;;;;;;;7.40;6.80;;;;;;;22.54;59.40;98628.69;226013;1274;22658;-68
2023/06/18 13:41:06;;;;;;;7.60;6.90;;;;;;;22.41;59.80;98629.16;226055;1278;24537;-69
2023/06/18 13:46:08;;;;;;;6.30;5.70;;;;;;;22.55;59.83;98627.94;226081;1274;23292;-69
2023/06/18 13:51:10;;;;;;;5.80;5.30;;;;;;;22.85;59.38;98619.70;226144;1278;22551;-69
2023/06/18 13:56:13;;;;;;;5.50;5.10;;;;;;;23.14;57.90;98617.83;226069;1275;22537;-69
2023/06/18 14:01:15;;;;;;;6.00;5.50;;;;;;;23.34;57.38;98615.13;226079;1275;22542;-68
2023/06/18 14:06:17;;;;;;;5.70;5.30;;;;;;;23.50;56.72;98612.64;226025;1275;22562;-70
2023/06/18 14:11:19;;;;;;;6.10;5.50;;;;;;;23.64;56.74;98611.14;226075;1260;22550;-69
2023/06/18 14:16:21;;;;;;;6.20;5.70;;;;;;;23.83;56.57;98612.45;226055;1277;22575;-71
2023/06/18 14:21:23;;;;;;;7.10;6.40;;;;;;;24.11;56.40;98609.42;226075;1275;26862;-67
2023/06/18 14:26:25;;;;;;;5.90;5.50;;;;;;;24.39;55.98;98605.42;226074;1274;22678;-69
2023/06/18 14:31:28;;;;;;;6.10;5.60;;;;;;;24.49;54.39;98608.37;226140;1278;25545;-70
2023/06/18 14:36:33;;;;;;;5.60;5.10;;;;;;;24.53;53.99;98609.14;226130;1256;22547;-69
2023/06/18 14:41:39;;;;;;;5.00;4.60;;;;;;;24.59;53.36;98606.17;226045;1274;22540;-68
2023/06/18 14:46:42;;;;;;;5.40;5.00;;;;;;;24.69;52.73;98610.25;226014;1274;23014;-70
2023/06/18 14:51:44;;;;;;;5.50;5.10;;;;;;;24.79;52.40;98612.15;226111;1274;22535;-69
2023/06/18 14:56:50;;;;;;;5.50;5.00;;;;;;;24.84;52.50;98614.81;226111;1275;22568;-71
2023/06/18 15:01:53;;;;;;;5.90;5.50;;;;;;;24.88;52.61;98607.00;226158;1274;22566;-70
2023/06/18 15:06:55;;;;;;;6.60;6.00;;;;;;;25.00;52.51;98601.60;226029;1275;22547;-69
2023/06/18 15:11:57;;;;;;;6.40;5.80;;;;;;;25.07;52.04;98598.23;226117;1271;22644;-70
2023/06/18 15:16:59;;;;;;;6.20;5.80;;;;;;;25.11;51.87;98599.75;226086;1268;22553;-69
2023/06/18 15:22:05;;;;;;;6.90;6.30;;;;;;;25.14;51.68;98597.66;225806;1277;22963;-68
2023/06/18 15:27:07;;;;;;;6.50;6.00;;;;;;;25.13;52.09;98588.98;226004;1275;22545;-69
2023/06/18 15:32:09;;;;;;;6.10;5.60;;;;;;;25.16;52.30;98592.40;226050;1267;22586;-69
2023/06/18 15:37:19;;;;;;;6.20;5.70;;;;;;;25.19;51.99;98591.67;226005;1278;22551;-68
2023/06/18 15:42:21;;;;;;;6.00;5.50;;;;;;;25.18;51.84;98588.60;226060;1274;22547;-68
2023/06/18 15:47:23;;;;;;;6.00;5.50;;;;;;;25.22;51.71;98583.14;226078;1275;22552;-70
2023/06/18 15:52:28;;;;;;;6.30;5.80;;;;;;;25.26;51.71;98582.77;226099;1268;22543;-69
2023/06/18 15:57:30;;;;;;;6.40;6.00;;;;;;;25.33;51.40;98581.52;226030;1278;22536;-70
2023/06/18 16:02:33;;;;;;;6.60;6.10;;;;;;;25.33;51.64;98582.80;226001;1267;24417;-69
2023/06/18 16:07:45;;;;;;;6.40;5.90;;;;;;;25.32;51.46;98583.73;226041;1278;22547;-67
2023/06/18 16:12:47;;;;;;;6.40;5.90;;;;;;;25.34;51.56;98584.95;226072;1275;22576;-69
2023/06/18 16:17:50;;;;;;;6.90;6.40;;;;;;;25.32;51.85;98589.30;226067;1278;22542;-68
2023/06/18 16:22:52;;;;;;;7.00;6.40;;;;;;;25.12;51.98;98591.64;226024;1278;22936;-70
2023/06/18 16:27:58;;;;;;;6.70;6.20;;;;;;;24.98;52.53;98587.52;226012;1278;22529;-70
2023/06/18 16:33:00;;;;;;;6.50;6.00;;;;;;;24.90;52.38;98588.01;225997;1277;22549;-68
2023/06/18 16:38:02;;;;;;;7.30;6.70;;;;;;;24.79;52.85;98586.32;226050;1274;22594;-70
2023/06/18 16:43:04;;;;;;;7.40;6.80;;;;;;;24.80;53.51;98588.85;226101;1273;22551;-69
2023/06/18 16:48:06;;;;;;;7.30;6.70;;;;;;;24.83;53.34;98593.63;226057;1275;24228;-68
2023/06/18 16:53:08;;;;;;;7.60;7.00;;;;;;;24.86;53.08;98592.73;225981;1275;22536;-68
2023/06/18 16:58:12;;;;;;;7.20;6.70;;;;;;;24.88;53.10;98590.62;225944;1278;22556;-68
2023/06/18 17:03:15;;;;;;;7.80;7.20;;;;;;;24.92;53.29;98589.66;226063;1277;22951;-69
2023/06/18 17:08:17;;;;;;;7.80;7.10;;;;;;;25.06;53.35;98588.36;226000;1274;22551;-69
2023/06/18 17:13:19;;;;;;;7.50;6.90;;;;;;;25.96;53.88;98592.73;226004;1276;22523;-68
2023/06/18 17:18:21;;;;;;;7.20;6.70;;;;;;;27.21;52.90;98593.78;226081;1275;22562;-69
2023/06/18 17:23:23;;;;;;;7.30;6.70;;;;;;;28.35;52.04;98595.24;226065;1274;24823;-70
2023/06/18 17:28:26;;;;;;;7.60;7.00;;;;;;;29.23;50.51;98597.33;226043;1274;22677;-68
2023/06/18 17:33:28;;;;;;;7.10;6.60;;;;;;;28.92;48.92;98607.02;226022;1276;22558;-68
2023/06/18 17:38:30;;;;;;;7.50;6.90;;;;;;;28.16;48.75;98612.45;226042;1274;22557;-69
2023/06/18 17:43:32;;;;;;;7.00;6.50;;;;;;;27.29;48.71;98615.94;226075;1273;24954;-69
2023/06/18 17:48:34;;;;;;;7.60;7.00;;;;;;;26.59;50.10;98616.70;226032;1276;22540;-69
2023/06/18 17:53:36;;;;;;;7.40;6.70;;;;;;;26.59;51.08;98623.24;226026;1274;25488;-71
2023/06/18 17:58:39;;;;;;;7.70;7.10;;;;;;;26.17;51.30;98621.60;225939;1274;22535;-69
2023/06/18 18:03:41;;;;;;;7.80;7.20;;;;;;;25.61;51.69;98630.08;225978;1279;23271;-69
2023/06/18 18:08:48;;;;;;;8.00;7.30;;;;;;;25.06;52.51;98635.21;225965;1278;22667;-70
2023/06/18 18:13:51;;;;;;;8.80;7.90;;;;;;;24.49;53.21;98638.35;225964;1278;22544;-69
2023/06/18 18:18:55;;;;;;;8.00;7.40;;;;;;;23.98;54.01;98646.60;225627;1279;120649;-69
2023/06/18 18:23:59;;;;;;;7.90;7.20;;;;;;;23.53;54.72;98644.58;225784;1278;22646;-69
2023/06/18 18:29:01;;;;;;;8.40;7.60;;;;;;;23.09;55.38;98642.08;225968;1260;22540;-69
2023/06/18 18:34:03;;;;;;;8.10;7.30;;;;;;;22.74;55.97;98651.48;225811;1278;22728;-69
2023/06/18 18:39:06;;;;;;;9.90;7.50;;;;;;;22.47;56.85;98648.73;225737;1262;22551;-69
2023/06/18 18:44:08;;;;;;;8.90;7.00;;;;;;;22.20;57.39;98648.63;225618;1280;22533;-68
2023/06/18 18:49:13;;;;;;;8.00;7.30;;;;;;;21.91;57.99;98658.76;225762;1280;22552;-70
2023/06/18 18:54:16;;;;;;;8.30;7.40;;;;;;;21.61;58.39;98659.38;225882;1273;25281;-69
2023/06/18 18:59:19;;;;;;;8.50;7.10;;;;;;;21.30;59.05;98664.13;225929;1278;22540;-69
2023/06/18 19:04:21;;;;;;;7.00;6.40;;;;;;;21.03;59.60;98667.91;225721;1266;27259;-69
2023/06/18 19:09:26;;;;;;;7.50;6.40;;;;;;;20.79;59.97;98669.71;225821;1278;22532;-70
2023/06/18 19:14:28;;;;;;;7.70;6.90;;;;;;;20.55;60.34;98675.15;225999;1278;24392;-70
2023/06/18 19:19:30;;;;;;;7.20;6.60;;;;;;;20.31;60.74;98684.63;225890;1277;22596;-69
2023/06/18 19:24:33;;;;;;;7.50;6.70;;;;;;;20.09;61.22;98690.16;225879;1278;22541;-69
2023/06/18 19:29:35;;;;;;;7.40;6.70;;;;;;;19.86;61.61;98690.77;225980;1279;24211;-68
2023/06/18 19:34:37;;;;;;;7.90;6.80;;;;;;;19.64;61.99;98699.23;226033;1279;25488;-69
2023/06/18 19:39:39;;;;;;;8.40;7.60;;;;;;;19.45;62.47;98703.98;226026;1273;23296;-69
2023/06/18 19:44:41;;;;;;;9.80;8.20;;;;;;;19.27;62.83;98704.86;226026;1280;22598;-68
2023/06/18 19:49:43;;;;;;;8.40;7.50;;;;;;;19.11;63.23;98705.25;225700;1271;22550;-69
2023/06/18 19:54:45;;;;;;;11.20;8.50;;;;;;;18.98;63.58;98709.61;225890;1278;22547;-69
2023/06/18 19:59:51;;;;;;;9.90;8.50;;;;;;;18.85;63.93;98712.63;225689;1280;22556;-69
2023/06/18 20:04:53;;;;;;;9.50;8.40;;;;;;;18.76;64.28;98712.52;225783;1280;22551;-69
2023/06/18 20:09:55;;;;;;;9.30;8.20;;;;;;;18.71;64.64;98713.60;225721;1264;25139;-70
2023/06/18 20:14:57;;;;;;;7.90;7.00;;;;;;;18.67;64.93;98720.41;225853;1279;22536;-70
2023/06/18 20:19:59;;;;;;;9.90;8.80;;;;;;;18.60;65.30;98724.29;226064;1279;22533;-67
2023/06/18 20:25:09;;;;;;;9.80;8.20;;;;;;;18.54;65.49;98726.39;225823;1257;22542;-68
2023/06/18 20:30:12;;;;;;;10.10;9.00;;;;;;;18.46;65.88;98728.02;226007;1269;23082;-68
2023/06/18 20:35:14;;;;;;;9.50;8.50;;;;;;;18.38;66.09;98730.55;225820;1278;22551;-69
2023/06/18 20:40:16;;;;;;;9.90;8.60;;;;;;;18.28;66.38;98731.48;225820;1263;23679;-69
2023/06/18 20:45:18;;;;;;;10.60;8.80;;;;;;;18.17;66.95;98728.97;225808;1276;22554;-68
2023/06/18 20:50:20;;;;;;;10.80;9.30;;;;;;;18.05;67.17;98732.86;225826;1278;24295;-69
2023/06/18 20:55:23;;;;;;;13.10;11.50;;;;;;;17.92;67.51;98726.77;226029;1278;24306;-69
2023/06/18 21:00:25;;;;;;;14.10;12.60;;;;;;;17.79;67.98;98721.15;225778;1280;22555;-69
2023/06/18 21:05:27;;;;;;;13.00;11.70;;;;;;;17.67;68.11;98722.45;225759;1280;22599;-69
2023/06/18 21:10:32;;;;;;;11.90;10.80;;;;;;;17.54;68.71;98719.73;225813;1272;22573;-69
2023/06/18 21:15:39;;;;;;;11.90;9.60;;;;;;;17.39;68.89;98717.98;226065;1280;22544;-69
2023/06/18 21:20:41;;;;;;;11.90;10.70;;;;;;;17.26;69.21;98716.76;225830;1273;25296;-70
2023/06/18 21:25:43;;;;;;;11.70;10.60;;;;;;;17.16;69.80;98718.31;226001;1279;22533;-71
2023/06/18 21:30:46;;;;;;;10.90;9.70;;;;;;;17.07;70.04;98719.73;225728;1276;22539;-69
2023/06/18 21:35:48;;;;;;;12.70;11.40;;;;;;;16.96;70.27;98722.09;226017;1280;26041;-69
2023/06/18 21:40:50;;;;;;;13.70;12.40;;;;;;;16.85;70.46;98720.50;225984;1278;22590;-69
2023/06/18 21:45:52;;;;;;;13.40;11.70;;;;;;;16.75;70.88;98719.35;225941;1276;22547;-69
2023/06/18 21:51:00;;;;;;;12.60;11.30;;;;;;;16.66;71.38;98716.43;226036;1276;24271;-70
2023/06/18 21:56:04;;;;;;;15.60;11.90;;;;;;;16.58;71.64;98711.63;225978;1280;22554;-70
2023/06/18 22:01:13;;;;;;;13.20;11.90;;;;;;;16.49;71.88;98713.05;225943;1278;22557;-68
2023/06/18 22:06:17;;;;;;;12.60;11.50;;;;;;;16.41;72.06;98711.45;225650;1279;22533;-69
2023/06/18 22:11:22;;;;;;;12.50;11.10;;;;;;;16.32;71.88;98721.13;225983;1267;22615;-69
2023/06/18 22:16:24;;;;;;;12.90;11.00;;;;;;;16.23;72.53;98729.78;225770;1279;22539;-69
2023/06/18 22:21:29;;;;;;;13.60;12.10;;;;;;;16.12;72.80;98728.42;225810;1279;24216;-68
2023/06/18 22:26:31;;;;;;;16.40;13.80;;;;;;;16.04;73.30;98721.54;225843;1279;22607;-69
2023/06/18 22:31:34;;;;;;;16.40;14.50;;;;;;;15.98;73.50;98718.07;225960;1279;22537;-69
2023/06/18 22:36:36;;;;;;;13.30;11.30;;;;;;;15.92;73.69;98721.45;225990;1280;25510;-69
2023/06/18 22:41:39;;;;;;;16.40;14.40;;;;;;;15.83;74.27;98720.21;225710;1279;22551;-69
2023/06/18 22:46:41;;;;;;;15.40;13.80;;;;;;;15.76;74.82;98716.84;225974;1279;22549;-69
2023/06/18 22:51:43;;;;;;;15.30;13.80;;;;;;;15.68;75.36;98715.84;225776;1280;24985;-69
2023/06/18 22:56:53;;;;;;;14.80;13.20;;;;;;;15.60;75.36;98715.23;225777;1280;22543;-69
2023/06/18 23:01:55;;;;;;;14.80;13.40;;;;;;;15.51;75.79;98717.05;225856;1276;22544;-69
2023/06/18 23:06:57;;;;;;;13.40;12.00;;;;;;;15.42;76.01;98715.92;225761;1279;22551;-70
2023/06/18 23:12:00;;;;;;;13.60;11.90;;;;;;;15.29;75.79;98713.09;225736;1265;22564;-68
2023/06/18 23:17:03;;;;;;;15.30;13.70;;;;;;;15.12;75.80;98710.72;225930;1279;24242;-68